Time;durP1;ratioP1;P1;durP2;ratioP2;P2;SDS_P1;SDS_P2;PMS_P1;PMS_P2;Temp;Humidity;BMP_temperature;BMP_pressure;BME280_temperature;BME280_humidity;BME280_pressure;Samples;Min_cycle;Max_cycle;Signal;HPM_P1;HPM_P2
2022/12/17 13:08:01;;;;;;;;;;;;;;;2.04;100.00;101429.25;5066574;28;20263;-65
2022/12/17 13:10:28;;;;;;;;;;;;;;;2.02;100.00;101430.31;5068864;28;19989;-63
2022/12/17 13:12:53;;;;;;;;;;;;;;;2.03;100.00;101427.56;5066123;28;19928;-63
2022/12/17 13:15:35;;;;;;;;;;;;;;;2.05;100.00;101430.06;5066517;28;19927;-62
2022/12/17 13:18:19;;;;;;;;;;;;;;;2.07;100.00;101434.25;5066969;28;19921;-62
2022/12/17 13:20:54;;;;;;;;;;;;;;;2.07;100.00;101428.19;5067606;28;19931;-62
2022/12/17 13:23:26;;;;;;;;;;;;;;;2.08;100.00;101432.47;5064402;28;19920;-65
2022/12/17 13:26:10;;;;;;;;;;;;;;;2.13;100.00;101431.16;5068206;28;19943;-65
2022/12/17 13:28:36;;;;;;;;;;;;;;;2.16;100.00;101437.97;5069251;28;19931;-62
2022/12/17 13:31:02;;;;;;;;;;;;;;;2.17;100.00;101424.78;5065484;28;19921;-62
2022/12/17 13:33:42;;;;;;;;;;;;;;;2.15;100.00;101418.81;5066315;28;19928;-62
2022/12/17 13:36:13;;;;;;;;;;;;;;;2.14;100.00;101418.91;5069369;28;20289;-62
2022/12/17 13:38:57;;;;;;;;;;;;;;;2.12;100.00;101423.44;5063847;28;20361;-62
2022/12/17 13:41:27;;;;;;;;;;;;;;;2.14;100.00;101426.75;5066012;28;19931;-62
2022/12/17 13:43:55;;;;;;;;;;;;;;;2.11;100.00;101432.22;5064045;28;19923;-63
2022/12/17 13:48:37;;;;;;;4.70;2.90;;;;;;;2.10;100.00;101427.94;5042504;28;20420;-61
2022/12/17 13:51:04;;;;;;;4.10;2.58;;;;;;;2.14;100.00;101426.75;5041450;28;20474;-61
2022/12/17 13:53:34;;;;;;;4.57;3.67;;;;;;;2.14;100.00;101437.22;5044505;28;20220;-61
2022/12/17 13:56:01;;;;;;;12.05;3.33;;;;;;;2.07;100.00;101425.56;5041738;28;20035;-61
2022/12/17 13:58:29;;;;;;;9.07;4.28;;;;;;;2.05;100.00;101425.66;5024754;28;20123;-59
2022/12/17 14:01:09;;;;;;;7.57;4.05;;;;;;;2.04;100.00;101433.63;5029848;28;20160;-61
2022/12/17 14:03:36;;;;;;;10.95;4.43;;;;;;;1.93;100.00;101430.00;5028098;28;20072;-61
2022/12/17 14:06:09;;;;;;;11.30;4.95;;;;;;;1.84;100.00;101428.06;5037557;28;20060;-61
2022/12/17 14:08:34;;;;;;;12.98;4.85;;;;;;;1.83;100.00;101425.56;5038772;28;20266;-61
2022/12/17 14:13:47;;;;;;;11.77;4.85;;;;;;;1.77;100.00;101432.06;5033906;28;20057;-61
2022/12/17 14:16:15;;;;;;;10.43;4.45;;;;;;;1.75;100.00;101441.78;5040634;28;20025;-60
2022/12/17 14:18:49;;;;;;;13.48;4.18;;;;;;;1.76;100.00;101446.09;5033251;28;20114;-61
2022/12/17 14:21:15;;;;;;;12.75;5.13;;;;;;;1.72;100.00;101439.41;5033076;28;20029;-61
2022/12/17 14:23:41;;;;;;;7.03;4.22;;;;;;;1.70;100.00;101441.28;5040987;28;20099;-60
2022/12/17 14:26:11;;;;;;;9.70;4.80;;;;;;;1.65;100.00;101449.50;5035153;28;20076;-60
2022/12/17 14:28:45;;;;;;;10.18;4.63;;;;;;;1.61;100.00;101449.81;5036385;28;20467;-60
2022/12/17 14:31:13;;;;;;;12.02;5.53;;;;;;;1.60;100.00;101456.81;5041685;28;20352;-60
2022/12/17 14:33:40;;;;;;;11.52;5.22;;;;;;;1.57;100.00;101457.00;5046995;28;20024;-59
2022/12/17 14:36:16;;;;;;;15.30;6.82;;;;;;;1.59;100.00;101460.34;5035533;28;20035;-58
2022/12/17 14:39:01;;;;;;;17.30;6.70;;;;;;;1.59;100.00;101459.53;5032382;28;20139;-59
2022/12/17 14:44:20;;;;;;;13.85;7.32;;;;;;;1.50;100.00;101455.81;5042295;28;20108;-60
2022/12/17 14:46:47;;;;;;;11.45;5.72;;;;;;;1.45;100.00;101453.50;5037641;28;20417;-59
2022/12/17 14:49:20;;;;;;;15.88;7.13;;;;;;;1.43;100.00;101465.84;5044677;28;20049;-60
2022/12/17 14:51:47;;;;;;;13.23;6.50;;;;;;;1.36;100.00;101464.59;5037579;28;20132;-60
2022/12/17 14:54:12;;;;;;;14.93;6.88;;;;;;;1.30;100.00;101465.84;5045271;28;20033;-60
2022/12/17 14:56:39;;;;;;;8.35;5.85;;;;;;;1.28;100.00;101461.69;5042353;28;20563;-60
2022/12/17 14:59:21;;;;;;;8.20;4.32;;;;;;;1.30;100.00;101471.09;5035751;28;20033;-60
2022/12/17 15:01:46;;;;;;;15.43;6.78;;;;;;;1.25;100.00;101473.19;5026160;28;20026;-60
2022/12/17 15:04:14;;;;;;;22.13;6.25;;;;;;;1.30;100.00;101471.09;5020986;28;20026;-60
2022/12/17 15:06:39;;;;;;;13.02;6.43;;;;;;;1.29;100.00;101473.78;5018581;28;20025;-60
2022/12/17 15:09:05;;;;;;;13.45;6.85;;;;;;;1.24;100.00;101471.53;5026012;28;20022;-60
2022/12/17 15:11:30;;;;;;;14.48;7.10;;;;;;;1.20;100.00;101472.66;5018351;28;20026;-60
2022/12/17 15:13:55;;;;;;;10.48;4.68;;;;;;;1.21;100.00;101469.09;5020354;28;20028;-60
2022/12/17 15:16:21;;;;;;;7.63;4.15;;;;;;;1.21;100.00;101470.88;5021114;28;20036;-59
2022/12/17 15:18:46;;;;;;;5.32;4.10;;;;;;;1.20;100.00;101469.22;5015120;28;20414;-59
2022/12/17 15:21:12;;;;;;;7.28;3.65;;;;;;;1.27;100.00;101476.53;5018431;28;20415;-59
2022/12/17 15:23:41;;;;;;;10.07;6.28;;;;;;;1.26;100.00;101477.44;5026831;28;20037;-59
2022/12/17 15:26:08;;;;;;;8.27;3.67;;;;;;;1.24;100.00;101475.88;5023258;28;20056;-54
2022/12/17 15:28:34;;;;;;;6.65;2.97;;;;;;;1.19;100.00;101477.97;5021216;28;20037;-59
2022/12/17 15:31:00;;;;;;;9.43;3.33;;;;;;;1.14;100.00;101480.09;5021931;28;20033;-59
2022/12/17 15:33:25;;;;;;;9.85;3.53;;;;;;;1.07;100.00;101467.44;5028139;28;20047;-54
2022/12/17 15:35:50;;;;;;;9.57;2.83;;;;;;;1.09;100.00;101467.34;5016735;28;20102;-57
2022/12/17 15:38:15;;;;;;;4.07;2.38;;;;;;;1.06;100.00;101468.41;5017943;28;20137;-58
2022/12/17 15:40:41;;;;;;;8.77;4.63;;;;;;;1.05;100.00;101465.88;5020991;28;20057;-59
2022/12/17 15:43:12;;;;;;;7.07;3.88;;;;;;;1.02;100.00;101468.72;5022533;28;20025;-59
2022/12/17 15:45:40;;;;;;;7.18;2.60;;;;;;;0.97;100.00;101471.63;5028320;28;20033;-58
2022/12/17 15:48:06;;;;;;;9.75;3.38;;;;;;;0.94;100.00;101471.84;5026456;28;20090;-60
2022/12/17 15:50:32;;;;;;;9.88;4.38;;;;;;;0.84;100.00;101470.78;5028560;28;20386;-58
2022/12/17 15:52:58;;;;;;;6.80;3.78;;;;;;;0.75;100.00;101480.09;5021872;28;20025;-59
2022/12/17 15:55:23;;;;;;;12.20;5.68;;;;;;;0.67;100.00;101476.31;5028558;28;20528;-59
2022/12/17 15:57:48;;;;;;;11.18;6.07;;;;;;;0.54;100.00;101476.28;5026816;28;20033;-59
2022/12/17 16:00:14;;;;;;;9.30;4.20;;;;;;;0.30;100.00;101479.56;5020624;28;20183;-58
2022/12/17 16:02:39;;;;;;;8.38;4.82;;;;;;;0.11;100.00;101482.53;5033731;28;20046;-59
2022/12/17 16:05:05;;;;;;;11.30;6.35;;;;;;;-0.09;100.00;101481.19;5020005;28;20037;-59
2022/12/17 16:07:31;;;;;;;12.80;8.10;;;;;;;-0.30;100.00;101491.22;5025675;28;20045;-57
2022/12/17 16:09:56;;;;;;;11.40;5.65;;;;;;;-0.47;100.00;101494.03;5022664;28;20033;-59
2022/12/17 16:12:22;;;;;;;5.00;3.97;;;;;;;-0.61;100.00;101494.88;5030930;28;20100;-59
2022/12/17 16:14:47;;;;;;;12.02;5.07;;;;;;;-0.75;100.00;101498.34;5027557;28;20091;-59
2022/12/17 16:17:13;;;;;;;11.65;4.80;;;;;;;-0.91;100.00;101500.16;5020134;28;20041;-57
2022/12/17 16:19:38;;;;;;;14.77;6.13;;;;;;;-1.02;100.00;101502.59;5031515;28;20040;-58
2022/12/17 16:22:04;;;;;;;11.65;5.63;;;;;;;-1.13;100.00;101501.44;5023781;28;20128;-57
2022/12/17 16:24:29;;;;;;;7.63;3.92;;;;;;;-1.18;100.00;101503.50;5027273;28;20037;-59
2022/12/17 16:26:55;;;;;;;8.13;4.07;;;;;;;-1.22;100.00;101501.97;5022528;28;20036;-58
2022/12/17 16:29:20;;;;;;;17.27;5.20;;;;;;;-1.26;100.00;101504.88;5034852;28;20053;-54
2022/12/17 16:31:45;;;;;;;12.45;4.43;;;;;;;-1.36;100.00;101496.75;5035182;28;20367;-59
2022/12/17 16:34:12;;;;;;;6.13;3.42;;;;;;;-1.44;100.00;101517.19;5030682;28;20414;-59
2022/12/17 16:36:37;;;;;;;8.80;4.13;;;;;;;-1.54;100.00;101504.69;5025497;28;20033;-59
2022/12/17 16:39:03;;;;;;;8.65;4.50;;;;;;;-1.63;100.00;101504.38;5024392;28;20067;-59
2022/12/17 16:41:29;;;;;;;8.57;4.30;;;;;;;-1.72;100.00;101500.53;5025966;28;20529;-59
2022/12/17 16:43:54;;;;;;;11.63;4.43;;;;;;;-1.80;100.00;101505.34;5025858;28;20029;-58
2022/12/17 16:46:34;;;;;;;10.13;4.13;;;;;;;-1.83;100.00;101506.34;5027087;28;20043;-59
2022/12/17 16:49:04;;;;;;;6.43;4.18;;;;;;;-1.86;100.00;101508.25;5024397;28;20029;-57
2022/12/17 16:51:29;;;;;;;8.48;4.60;;;;;;;-1.98;100.00;101509.81;5019013;28;20421;-60
2022/12/17 16:53:55;;;;;;;10.15;4.45;;;;;;;-2.04;100.00;101508.38;5023480;28;20036;-60
2022/12/17 16:56:24;;;;;;;14.60;4.90;;;;;;;-2.06;100.00;101514.59;5025566;28;20482;-60
2022/12/17 16:58:49;;;;;;;16.30;5.78;;;;;;;-2.14;100.00;101522.81;5023016;28;20055;-59
2022/12/17 17:01:23;;;;;;;10.43;5.85;;;;;;;-2.14;100.00;101519.34;5028879;28;20097;-60
2022/12/17 17:03:49;;;;;;;8.63;3.47;;;;;;;-2.22;100.00;101514.56;5022251;28;20067;-59
2022/12/17 17:06:16;;;;;;;9.77;4.07;;;;;;;-2.27;100.00;101513.97;5022610;28;20479;-59
2022/12/17 17:08:42;;;;;;;6.35;4.15;;;;;;;-2.31;100.00;101523.69;5022406;28;20628;-59
2022/12/17 17:11:18;;;;;;;5.60;3.55;;;;;;;-2.32;100.00;101523.78;5019786;28;20037;-59
2022/12/17 17:13:43;;;;;;;9.02;3.20;;;;;;;-2.34;100.00;101523.03;5015070;28;20439;-58
2022/12/17 17:16:10;;;;;;;8.13;3.63;;;;;;;-2.37;100.00;101516.25;5024825;28;20124;-60
2022/12/17 17:18:36;;;;;;;9.43;4.72;;;;;;;-2.39;100.00;101520.69;5016366;28;20176;-61
2022/12/17 17:21:12;;;;;;;11.82;5.03;;;;;;;-2.38;100.00;101516.31;5023051;28;20040;-58
2022/12/17 17:23:37;;;;;;;8.52;2.83;;;;;;;-2.34;100.00;101518.66;5016711;28;20060;-61
2022/12/17 17:26:03;;;;;;;12.18;4.55;;;;;;;-2.34;100.00;101516.06;5013230;28;20047;-64
2022/12/17 17:28:28;;;;;;;15.93;6.30;;;;;;;-2.34;100.00;101510.88;5022004;28;20072;-60
2022/12/17 17:31:02;;;;;;;17.45;6.90;;;;;;;-2.27;100.00;101508.78;5025415;28;20086;-62
2022/12/17 17:33:35;;;;;;;13.65;5.22;;;;;;;-2.17;100.00;101515.16;5020186;28;20042;-63
2022/12/17 17:36:04;;;;;;;10.20;4.88;;;;;;;-2.07;100.00;101516.31;5014945;28;20044;-60
2022/12/17 17:38:29;;;;;;;8.60;4.35;;;;;;;-2.04;100.00;101515.31;5030533;28;20048;-56
2022/12/17 17:40:58;;;;;;;7.13;3.38;;;;;;;-1.92;100.00;101516.41;5021208;28;20711;-63
2022/12/17 17:43:24;;;;;;;9.63;4.90;;;;;;;-1.94;100.00;101519.09;5018783;28;20108;-60
2022/12/17 17:45:50;;;;;;;4.47;2.75;;;;;;;-2.03;100.00;101530.84;5020448;28;20058;-60
2022/12/17 17:48:15;;;;;;;10.00;5.20;;;;;;;-2.13;100.00;101532.25;5024901;28;20060;-60
2022/12/17 17:50:40;;;;;;;12.63;5.32;;;;;;;-2.21;100.00;101534.44;5015979;28;20489;-63
2022/12/17 17:53:07;;;;;;;10.18;4.20;;;;;;;-2.30;100.00;101529.72;5019754;28;20017;-57
2022/12/17 17:55:35;;;;;;;15.35;3.88;;;;;;;-2.39;100.00;101525.88;5026646;28;20152;-63
2022/12/17 17:58:01;;;;;;;6.70;4.20;;;;;;;-2.53;100.00;101518.81;5008850;28;20038;-61
2022/12/17 18:00:27;;;;;;;9.73;2.78;;;;;;;-2.58;100.00;101528.63;5020621;28;20025;-61
2022/12/17 18:02:52;;;;;;;6.95;4.00;;;;;;;-2.60;100.00;101527.03;5023639;28;20064;-61
2022/12/17 18:05:17;;;;;;;10.38;4.30;;;;;;;-2.73;100.00;101529.41;5015262;28;20031;-62
2022/12/17 18:07:43;;;;;;;9.27;3.55;;;;;;;-2.83;100.00;101523.03;5021619;28;20112;-61
2022/12/17 18:10:08;;;;;;;6.53;3.53;;;;;;;-2.90;100.00;101517.28;5022222;28;20029;-62
2022/12/17 18:15:17;;;;;;;47.10;9.32;;;;;;;-2.94;100.00;101531.34;5015102;28;20643;-62
2022/12/17 18:17:49;;;;;;;83.13;16.73;;;;;;;-3.02;100.00;101546.44;5016963;28;20029;-62
2022/12/17 18:20:15;;;;;;;16.02;6.75;;;;;;;-3.21;100.00;101543.94;5021926;28;20029;-62
2022/12/17 18:22:41;;;;;;;18.17;6.32;;;;;;;-3.41;100.00;101543.16;5022885;28;20440;-63
2022/12/17 18:25:07;;;;;;;15.85;6.13;;;;;;;-3.53;100.00;101549.81;5014576;28;20041;-63
2022/12/17 18:27:32;;;;;;;15.88;4.97;;;;;;;-3.60;100.00;101550.16;5018371;28;20060;-62
2022/12/17 18:29:58;;;;;;;7.93;4.88;;;;;;;-3.64;100.00;101548.63;5019656;28;20391;-62
2022/12/17 18:32:23;;;;;;;12.27;6.28;;;;;;;-3.70;100.00;101542.00;5015141;28;20068;-62
2022/12/17 18:34:48;;;;;;;9.30;3.90;;;;;;;-3.78;100.00;101544.94;5021548;28;20030;-62
2022/12/17 18:37:13;;;;;;;8.52;4.95;;;;;;;-3.81;100.00;101542.50;5026282;28;20483;-63
2022/12/17 18:39:39;;;;;;;8.98;4.30;;;;;;;-3.81;100.00;101544.25;5021888;28;20557;-63
2022/12/17 18:44:48;;;;;;;8.85;3.63;;;;;;;-3.93;100.00;101553.44;5023146;28;20139;-65
2022/12/17 18:47:14;;;;;;;14.88;3.92;;;;;;;-4.01;100.00;101558.13;5025788;28;21554;-65
2022/12/17 18:49:39;;;;;;;9.82;4.32;;;;;;;-4.07;100.00;101548.91;5020041;28;20033;-64
2022/12/17 18:52:05;;;;;;;9.25;4.07;;;;;;;-4.16;100.00;101549.31;5024099;28;20510;-64
2022/12/17 18:54:31;;;;;;;10.40;4.07;;;;;;;-4.23;100.00;101548.75;5014461;28;20403;-64
2022/12/17 18:56:57;;;;;;;8.88;4.90;;;;;;;-4.28;100.00;101555.91;5022015;28;20025;-66
2022/12/17 18:59:25;;;;;;;9.63;3.75;;;;;;;-4.30;100.00;101557.72;5027715;28;20529;-64
2022/12/17 19:01:51;;;;;;;8.75;4.20;;;;;;;-4.36;100.00;101560.59;5021061;28;20091;-65
2022/12/17 19:04:19;;;;;;;6.85;3.13;;;;;;;-4.40;100.00;101559.03;5023849;28;20478;-65
2022/12/17 19:06:47;;;;;;;8.45;3.58;;;;;;;-4.50;100.00;101558.59;5020196;28;20100;-65
2022/12/17 19:09:24;;;;;;;45.63;12.45;;;;;;;-4.50;100.00;101563.78;5025834;28;20108;-65
2022/12/17 19:11:51;;;;;;;23.80;9.20;;;;;;;-4.54;100.00;101556.19;5017762;28;20029;-65
2022/12/17 19:14:16;;;;;;;24.45;7.45;;;;;;;-4.63;100.00;101553.13;5023834;28;20026;-66
2022/12/17 19:16:42;;;;;;;11.98;5.13;;;;;;;-4.64;100.00;101545.44;5022373;28;20537;-66
2022/12/17 19:19:10;;;;;;;12.98;5.38;;;;;;;-4.66;100.00;101547.25;5023163;28;20036;-66
2022/12/17 19:21:36;;;;;;;6.55;3.30;;;;;;;-4.69;100.00;101544.78;5025149;28;20037;-66
2022/12/17 19:24:04;;;;;;;10.45;4.68;;;;;;;-4.69;100.00;101542.22;5023441;28;20028;-66
2022/12/17 19:26:30;;;;;;;9.93;4.38;;;;;;;-4.76;100.00;101546.78;5021038;28;20033;-66
2022/12/17 19:28:57;;;;;;;10.07;4.93;;;;;;;-4.85;100.00;101549.81;5025087;28;20021;-66
2022/12/17 19:31:25;;;;;;;8.98;4.50;;;;;;;-4.86;100.00;101555.84;5025501;28;20389;-66
2022/12/17 19:33:58;;;;;;;15.48;4.72;;;;;;;-4.97;100.00;101550.31;5025955;28;20018;-66
2022/12/17 19:36:26;;;;;;;15.60;5.65;;;;;;;-5.13;100.00;101548.38;5024321;28;20037;-67
2022/12/17 19:38:53;;;;;;;12.65;6.07;;;;;;;-5.20;100.00;101546.09;5023281;28;20033;-66
2022/12/17 19:41:18;;;;;;;14.93;6.85;;;;;;;-5.30;100.00;101558.56;5021754;28;20125;-66
2022/12/17 19:43:46;;;;;;;20.50;7.22;;;;;;;-5.31;100.00;101567.22;5022055;28;20104;-67
2022/12/17 19:46:14;;;;;;;16.83;8.32;;;;;;;-5.29;100.00;101562.84;5019191;28;20119;-66
2022/12/17 19:48:40;;;;;;;16.85;7.38;;;;;;;-5.32;100.00;101568.13;5022845;28;20364;-67
2022/12/17 19:51:08;;;;;;;13.30;6.93;;;;;;;-5.35;100.00;101566.50;5020252;28;20121;-67
2022/12/17 19:53:37;;;;;;;26.05;8.85;;;;;;;-5.42;100.00;101564.22;5022146;28;20049;-67
2022/12/17 19:56:08;;;;;;;17.42;8.10;;;;;;;-5.44;100.00;101563.47;5015033;28;20033;-66
2022/12/17 19:58:33;;;;;;;;;;;;;;;-5.45;100.00;101569.53;5023160;28;20029;-66
2022/12/17 20:01:14;;;;;;;14.13;5.95;;;;;;;-5.55;100.00;101556.13;5024485;28;19925;-66
2022/12/17 20:03:41;;;;;;;16.45;6.95;;;;;;;-5.64;100.00;101570.25;5020722;28;20118;-66
2022/12/17 20:06:08;;;;;;;15.65;7.38;;;;;;;-5.67;100.00;101569.53;5021100;28;20037;-66
2022/12/17 20:08:34;;;;;;;23.83;10.00;;;;;;;-5.70;100.00;101580.84;5026297;28;20034;-66
2022/12/17 20:11:01;;;;;;;22.67;8.40;;;;;;;-5.74;100.00;101576.69;5020555;28;20037;-66
2022/12/17 20:13:27;;;;;;;23.10;8.65;;;;;;;-5.74;100.00;101587.00;5015045;28;20475;-66
2022/12/17 20:16:00;;;;;;;18.95;7.53;;;;;;;-5.68;100.00;101586.75;5011714;28;20129;-66
2022/12/17 20:18:26;;;;;;;21.88;7.55;;;;;;;-5.74;100.00;101579.25;5015353;28;20156;-66
2022/12/17 20:20:59;;;;;;;11.02;5.93;;;;;;;-5.72;100.00;101580.88;5020756;28;20168;-66
2022/12/17 20:23:24;;;;;;;19.33;6.95;;;;;;;-5.81;100.00;101577.81;5020198;28;20059;-66
2022/12/17 20:26:03;;;;;;;8.23;5.60;;;;;;;-5.89;100.00;101579.84;5022392;28;20041;-66
2022/12/17 20:28:28;;;;;;;16.98;6.53;;;;;;;-6.00;100.00;101581.13;5009387;28;20048;-66
2022/12/17 20:30:54;;;;;;;15.05;8.20;;;;;;;-6.03;100.00;101577.84;5029628;28;20033;-66
2022/12/17 20:33:19;;;;;;;17.08;7.22;;;;;;;-6.07;100.00;101576.25;5022242;28;20041;-66
2022/12/17 20:35:45;;;;;;;17.02;7.25;;;;;;;-6.06;100.00;101570.22;5026762;28;20060;-65
2022/12/17 20:38:10;;;;;;;12.32;7.15;;;;;;;-6.07;100.00;101574.50;5025099;28;20121;-66
2022/12/17 20:40:38;;;;;;;22.23;8.02;;;;;;;-6.09;100.00;101567.72;5019082;28;20056;-66
2022/12/17 20:43:04;;;;;;;11.63;6.10;;;;;;;-6.15;100.00;101574.78;5018351;28;20041;-66
2022/12/17 20:45:29;;;;;;;20.85;6.60;;;;;;;-6.21;100.00;101576.78;5020303;28;20025;-66
2022/12/17 20:47:54;;;;;;;14.07;5.70;;;;;;;-6.22;100.00;101577.66;5021832;28;20041;-66
2022/12/17 20:50:20;;;;;;;12.05;6.22;;;;;;;-6.27;100.00;101577.84;5022214;28;20053;-65
2022/12/17 20:52:45;;;;;;;11.77;5.75;;;;;;;-6.30;100.00;101582.25;5023555;28;20068;-66
2022/12/17 20:55:11;;;;;;;19.85;5.63;;;;;;;-6.27;100.00;101584.72;5025900;28;20099;-66
2022/12/17 20:57:36;;;;;;;14.57;6.20;;;;;;;-6.29;100.00;101581.38;5020847;28;20097;-66
2022/12/17 21:00:01;;;;;;;12.65;5.30;;;;;;;-6.36;100.00;101580.75;5022705;28;20037;-66
2022/12/17 21:02:27;;;;;;;14.30;6.75;;;;;;;-6.48;100.00;101581.19;5024449;28;20045;-66
2022/12/17 21:04:52;;;;;;;86.45;20.33;;;;;;;-6.55;100.00;101590.06;5019567;28;20064;-66
2022/12/17 21:07:17;;;;;;;51.03;15.75;;;;;;;-6.51;100.00;101579.56;5016769;28;20092;-66
2022/12/17 21:09:43;;;;;;;22.08;8.32;;;;;;;-6.51;100.00;101581.28;5015345;28;20036;-66
2022/12/17 21:12:08;;;;;;;21.77;8.65;;;;;;;-6.58;100.00;101585.84;5020092;28;20022;-66
2022/12/17 21:14:33;;;;;;;20.48;7.85;;;;;;;-6.71;100.00;101575.13;5014889;28;20033;-66
2022/12/17 21:16:59;;;;;;;11.27;5.13;;;;;;;-6.76;100.00;101582.16;5013839;28;20501;-65
2022/12/17 21:19:26;;;;;;;13.57;6.97;;;;;;;-6.83;100.00;101580.69;5014134;28;20025;-66
2022/12/17 21:21:51;;;;;;;20.08;8.07;;;;;;;-6.85;100.00;101585.88;5022574;28;20108;-66
2022/12/17 21:24:17;;;;;;;17.38;6.45;;;;;;;-6.87;100.00;101590.25;5015915;28;20065;-65
2022/12/17 21:26:45;;;;;;;15.25;6.32;;;;;;;-6.88;100.00;101593.75;5011803;28;20144;-66
2022/12/17 21:29:11;;;;;;;16.80;6.07;;;;;;;-6.96;100.00;101592.31;5006644;28;20025;-66
2022/12/17 21:31:39;;;;;;;11.55;5.90;;;;;;;-7.03;100.00;101583.94;5008072;28;20483;-66
2022/12/17 21:34:09;;;;;;;14.80;5.68;;;;;;;-7.08;100.00;101591.81;5011292;28;20025;-66
2022/12/17 21:36:34;;;;;;;12.67;5.37;;;;;;;-7.11;100.00;101585.94;5015377;28;20026;-66
2022/12/17 21:39:00;;;;;;;13.97;5.70;;;;;;;-7.09;100.00;101564.38;5005730;28;20091;-65
2022/12/17 21:41:29;;;;;;;8.17;5.63;;;;;;;-7.02;100.00;101577.91;5012345;28;20030;-65
2022/12/17 21:43:57;;;;;;;17.63;7.87;;;;;;;-6.99;100.00;101585.53;5017272;28;20064;-66
2022/12/17 21:46:25;;;;;;;19.33;7.03;;;;;;;-6.97;100.00;101578.56;5016656;28;20272;-65
2022/12/17 21:48:52;;;;;;;12.40;6.97;;;;;;;-7.02;100.00;101577.91;5015986;28;20096;-65
2022/12/17 21:51:18;;;;;;;17.07;5.80;;;;;;;-6.99;100.00;101571.81;5013680;28;20160;-65
2022/12/17 21:53:44;;;;;;;21.98;7.82;;;;;;;-7.01;100.00;101577.00;5016961;28;20444;-65
2022/12/17 21:56:12;;;;;;;12.98;4.43;;;;;;;-7.04;100.00;101566.78;5013292;28;20044;-65
2022/12/17 21:58:38;;;;;;;14.07;5.67;;;;;;;-7.11;100.00;101561.00;5020585;28;20111;-66
2022/12/17 22:01:09;;;;;;;12.50;4.97;;;;;;;-7.14;100.00;101562.84;5020694;28;20131;-65
2022/12/17 22:03:34;;;;;;;8.80;3.60;;;;;;;-7.19;100.00;101573.28;5015514;28;20110;-65
2022/12/17 22:06:11;;;;;;;10.67;3.87;;;;;;;-7.24;100.00;101578.59;5013629;28;20050;-65
2022/12/17 22:08:37;;;;;;;13.20;3.73;;;;;;;-7.33;100.00;101572.88;5018760;28;20349;-66
2022/12/17 22:11:08;;;;;;;12.40;5.73;;;;;;;-7.35;100.00;101572.97;5023519;28;20159;-66
2022/12/17 22:16:20;;;;;;;20.03;6.40;;;;;;;-7.25;100.00;101561.47;5022566;28;20095;-65
2022/12/17 22:18:45;;;;;;;11.13;3.87;;;;;;;-7.24;100.00;101560.56;5021372;28;20761;-65
2022/12/17 22:21:11;;;;;;;9.07;4.63;;;;;;;-7.28;100.00;101552.97;5015841;28;20060;-65
2022/12/17 22:23:36;;;;;;;9.60;4.80;;;;;;;-7.31;100.00;101564.22;5021095;28;20087;-65
2022/12/17 22:26:07;;;;;;;9.90;4.70;;;;;;;-7.29;100.00;101556.44;5024971;28;20032;-65
2022/12/17 22:28:32;;;;;;;11.05;5.55;;;;;;;-7.31;100.00;101558.22;5015871;28;20036;-65
2022/12/17 22:33:48;;;;;;;9.30;3.93;;;;;;;-7.36;100.00;101553.22;5025692;28;20072;-66
2022/12/17 22:36:14;;;;;;;15.47;3.50;;;;;;;-7.36;100.00;101545.47;5020444;28;20029;-64
2022/12/17 22:38:39;;;;;;;10.17;3.23;;;;;;;-7.25;100.00;101537.44;5018315;28;20033;-65
2022/12/17 22:41:06;;;;;;;9.70;4.75;;;;;;;-7.22;100.00;101534.75;5019247;28;20049;-65
2022/12/17 22:43:33;;;;;;;11.57;5.07;;;;;;;-7.24;100.00;101539.94;5020812;28;20029;-65
2022/12/17 22:46:00;;;;;;;10.57;4.53;;;;;;;-7.27;100.00;101536.63;5017658;28;20033;-65
2022/12/17 22:48:26;;;;;;;11.37;5.00;;;;;;;-7.33;100.00;101524.78;5015385;28;20065;-65
2022/12/17 22:50:52;;;;;;;11.53;4.30;;;;;;;-7.32;100.00;101526.47;5012966;28;20033;-65
2022/12/17 22:53:17;;;;;;;9.47;4.90;;;;;;;-7.35;100.00;101533.47;5017662;28;20063;-65
2022/12/17 22:55:43;;;;;;;11.87;5.57;;;;;;;-7.30;100.00;101539.31;5019821;28;20763;-65
2022/12/17 22:58:09;;;;;;;14.63;4.43;;;;;;;-7.33;100.00;101535.09;5023673;28;20033;-64
2022/12/17 23:00:35;;;;;;;12.40;5.73;;;;;;;-7.37;100.00;101538.66;5017233;28;20096;-65
2022/12/17 23:03:01;;;;;;;8.63;4.77;;;;;;;-7.43;100.00;101533.72;5035120;28;20144;-65
2022/12/17 23:05:27;;;;;;;17.75;6.72;;;;;;;-7.33;100.00;101522.22;5018606;28;20136;-65
2022/12/17 23:07:53;;;;;;;17.30;6.03;;;;;;;-7.33;100.00;101516.19;5020997;28;20026;-64
2022/12/17 23:10:20;;;;;;;16.00;7.95;;;;;;;-7.26;100.00;101521.09;5021259;28;20038;-65
2022/12/17 23:12:52;;;;;;;13.63;6.27;;;;;;;-7.15;100.00;101517.31;5010935;28;20348;-65
2022/12/17 23:15:22;;;;;;;15.13;6.63;;;;;;;-7.11;100.00;101516.34;5013889;28;20048;-65
2022/12/17 23:17:47;;;;;;;18.80;5.93;;;;;;;-7.07;100.00;101520.50;5016135;28;20037;-65
2022/12/17 23:20:13;;;;;;;18.97;7.17;;;;;;;-7.04;100.00;101520.38;5018576;28;20092;-65
2022/12/17 23:22:38;;;;;;;11.10;5.43;;;;;;;-7.02;100.00;101514.28;5019811;28;20065;-65
2022/12/17 23:25:04;;;;;;;16.93;6.83;;;;;;;-6.93;100.00;101523.44;5019549;28;20033;-65
2022/12/17 23:27:30;;;;;;;24.93;7.27;;;;;;;-6.87;100.00;101524.94;5018881;28;20033;-65
2022/12/17 23:29:55;;;;;;;20.13;8.17;;;;;;;-6.88;100.00;101529.25;5019627;28;20079;-64
2022/12/17 23:32:20;;;;;;;21.83;7.70;;;;;;;-6.84;100.00;101528.28;5018024;28;20200;-65
2022/12/17 23:34:46;;;;;;;19.43;7.33;;;;;;;-6.83;100.00;101529.94;5020782;28;20021;-65
2022/12/17 23:37:11;;;;;;;20.73;6.63;;;;;;;-6.73;100.00;101530.47;5024249;28;20448;-65
2022/12/17 23:39:36;;;;;;;15.80;6.18;;;;;;;-6.66;100.00;101528.50;5023546;28;20572;-64
2022/12/17 23:42:02;;;;;;;23.97;6.97;;;;;;;-6.69;100.00;101523.44;5020443;28;20420;-65
2022/12/17 23:44:28;;;;;;;15.82;4.93;;;;;;;-6.67;100.00;101519.09;5023187;28;20052;-65
2022/12/17 23:46:53;;;;;;;13.68;6.45;;;;;;;-6.77;100.00;101528.06;5019488;28;20046;-64
2022/12/17 23:49:18;;;;;;;12.40;4.38;;;;;;;-6.80;100.00;101535.00;5020114;28;20285;-65
2022/12/17 23:51:44;;;;;;;14.40;5.80;;;;;;;-6.83;100.00;101534.28;5015842;28;20030;-65
2022/12/17 23:54:09;;;;;;;17.15;7.03;;;;;;;-6.87;100.00;101518.03;5022615;28;20052;-65
2022/12/17 23:56:35;;;;;;;16.33;6.93;;;;;;;-6.87;100.00;101518.03;5025059;28;20029;-65
2022/12/17 23:59:01;;;;;;;10.70;4.78;;;;;;;-6.85;100.00;101513.69;5024330;28;20079;-65
